createdAt,value
2022-12-04T00:00:15.350Z,46.25
2022-12-04T00:01:15.351Z,45.76
2022-12-04T00:02:15.359Z,46.41
2022-12-04T00:03:15.384Z,46.73
2022-12-04T00:04:15.355Z,46.57
2022-12-04T00:05:15.360Z,46.25
2022-12-04T00:06:15.313Z,46.08
2022-12-04T00:07:15.315Z,46.73
2022-12-04T00:08:15.422Z,46.41
2022-12-04T00:09:15.278Z,46.57
2022-12-04T00:10:15.287Z,46.41
2022-12-04T00:11:15.274Z,46.08
2022-12-04T00:12:15.295Z,45.76
2022-12-04T00:13:15.263Z,46.57
2022-12-04T00:14:15.259Z,46.41
2022-12-04T00:15:30.605Z,46.25
2022-12-04T00:16:17.317Z,45.92
2022-12-04T00:17:15.254Z,46.73
2022-12-04T00:18:15.223Z,46.73
2022-12-04T00:19:15.219Z,47.05
2022-12-04T00:20:15.213Z,46.57
2022-12-04T00:21:15.215Z,46.41
2022-12-04T00:22:15.202Z,46.57
2022-12-04T00:23:15.213Z,46.41
2022-12-04T00:24:15.188Z,46.08
2022-12-04T00:25:15.184Z,46.73
2022-12-04T00:26:15.174Z,46.25
2022-12-04T00:27:15.167Z,46.41
2022-12-04T00:28:15.174Z,47.37
2022-12-04T00:29:15.167Z,46.25
2022-12-04T00:30:15.144Z,46.08
2022-12-04T00:31:15.234Z,46.57
2022-12-04T00:32:15.130Z,46.08
2022-12-04T00:33:15.143Z,46.41
2022-12-04T00:34:15.135Z,46.41
2022-12-04T00:35:15.119Z,46.08
2022-12-04T00:36:15.110Z,46.73
2022-12-04T00:37:15.111Z,46.41
2022-12-04T00:38:15.107Z,46.41
2022-12-04T00:39:15.085Z,46.25
2022-12-04T00:40:15.086Z,46.73
2022-12-04T00:41:15.066Z,46.57
2022-12-04T00:42:15.063Z,46.41
2022-12-04T00:43:15.066Z,46.57
2022-12-04T00:44:15.075Z,46.25
2022-12-04T00:45:15.043Z,46.08
2022-12-04T00:46:15.076Z,46.25
2022-12-04T00:47:15.026Z,46.25
2022-12-04T00:48:15.028Z,46.41
2022-12-04T00:49:15.030Z,46.25
2022-12-04T00:50:15.015Z,46.41
2022-12-04T00:51:15.022Z,46.41
2022-12-04T00:52:14.995Z,46.41
2022-12-04T00:53:14.996Z,46.08
2022-12-04T00:54:14.996Z,46.08
2022-12-04T00:55:14.979Z,46.25
2022-12-04T00:56:15.032Z,46.08
2022-12-04T00:57:14.962Z,46.25
2022-12-04T00:58:14.962Z,46.57
2022-12-04T00:59:14.947Z,46.25
2022-12-04T01:00:14.939Z,46.25
2022-12-04T01:01:15.056Z,46.89
2022-12-04T01:02:14.917Z,46.41
2022-12-04T01:03:14.980Z,45.92
2022-12-04T01:04:14.919Z,46.41
2022-12-04T01:05:14.913Z,46.41
2022-12-04T01:06:14.959Z,46.73
2022-12-04T01:07:14.914Z,46.25
2022-12-04T01:08:14.962Z,45.76
2022-12-04T01:09:14.883Z,46.41
2022-12-04T01:10:14.918Z,46.08
2022-12-04T01:11:14.914Z,46.41
2022-12-04T01:12:20.414Z,46.57
2022-12-04T01:13:16.862Z,46.08
2022-12-04T01:14:14.850Z,46.57
2022-12-04T01:15:14.834Z,46.41
2022-12-04T01:16:14.885Z,46.57
2022-12-04T01:17:14.846Z,46.41
2022-12-04T01:18:14.845Z,46.25
2022-12-04T01:19:14.819Z,46.57
2022-12-04T01:20:14.813Z,46.25
2022-12-04T01:21:14.818Z,46.08
2022-12-04T01:22:14.798Z,46.08
2022-12-04T01:23:14.812Z,46.73
2022-12-04T01:24:14.776Z,45.92
2022-12-04T01:25:14.781Z,46.25
2022-12-04T01:26:14.770Z,46.41
2022-12-04T01:27:14.786Z,45.92
2022-12-04T01:28:14.759Z,46.25
2022-12-04T01:29:14.752Z,46.25
2022-12-04T01:30:14.743Z,46.57
2022-12-04T01:31:14.765Z,46.08
2022-12-04T01:32:14.835Z,46.25
2022-12-04T01:33:14.737Z,46.41
2022-12-04T01:34:14.712Z,46.08
2022-12-04T01:35:14.711Z,46.08
2022-12-04T01:36:14.703Z,46.25
2022-12-04T01:37:14.684Z,45.92
2022-12-04T01:38:14.703Z,46.41
2022-12-04T01:39:14.684Z,46.08
2022-12-04T01:40:14.680Z,46.08
2022-12-04T01:41:14.679Z,46.08
2022-12-04T01:42:14.656Z,46.08
2022-12-04T01:43:14.659Z,45.60
2022-12-04T01:44:14.666Z,46.41
2022-12-04T01:45:14.644Z,46.25
2022-12-04T01:46:14.736Z,46.73
2022-12-04T01:47:14.656Z,47.05
2022-12-04T01:48:14.627Z,47.05
2022-12-04T01:49:14.609Z,45.92
2022-12-04T01:50:14.619Z,46.41
2022-12-04T01:51:14.615Z,46.41
2022-12-04T01:52:14.616Z,46.08
2022-12-04T01:53:14.592Z,46.25
2022-12-04T01:54:14.604Z,46.41
2022-12-04T01:55:14.576Z,46.25
2022-12-04T01:56:14.572Z,46.57
2022-12-04T01:57:14.562Z,46.25
2022-12-04T01:58:14.556Z,46.08
2022-12-04T01:59:14.564Z,45.92
2022-12-04T02:00:14.545Z,45.92
2022-12-04T02:01:14.629Z,46.41
2022-12-04T02:02:14.788Z,46.08
2022-12-04T02:03:14.596Z,46.89
2022-12-04T02:04:14.548Z,46.25
2022-12-04T02:05:14.523Z,46.41
2022-12-04T02:06:14.516Z,46.41
2022-12-04T02:07:14.513Z,46.25
2022-12-04T02:08:14.562Z,46.41
2022-12-04T02:09:14.519Z,45.92
2022-12-04T02:10:14.481Z,46.41
2022-12-04T02:11:14.491Z,46.41
2022-12-04T02:12:14.472Z,46.41
2022-12-04T02:13:14.463Z,46.25
2022-12-04T02:14:14.460Z,45.92
2022-12-04T02:15:14.472Z,46.57
2022-12-04T02:16:14.530Z,46.73
2022-12-04T02:17:14.450Z,46.41
2022-12-04T02:18:14.434Z,47.05
2022-12-04T02:19:14.414Z,46.08
2022-12-04T02:20:14.408Z,45.44
2022-12-04T02:21:14.438Z,46.25
2022-12-04T02:22:14.404Z,46.41
2022-12-04T02:23:14.387Z,46.41
2022-12-04T02:24:14.392Z,46.57
2022-12-04T02:25:14.375Z,46.73
2022-12-04T02:26:14.372Z,46.25
2022-12-04T02:27:14.379Z,46.25
2022-12-04T02:28:14.349Z,46.08
2022-12-04T02:29:14.350Z,46.08
2022-12-04T02:30:14.353Z,46.25
2022-12-04T02:31:14.468Z,45.92
2022-12-04T02:32:14.350Z,46.41
2022-12-04T02:33:14.331Z,46.08
2022-12-04T02:34:14.324Z,46.25
2022-12-04T02:35:14.307Z,46.41
2022-12-04T02:36:14.450Z,46.41
2022-12-04T02:37:14.337Z,45.76
2022-12-04T02:38:14.293Z,46.25
2022-12-04T02:39:14.286Z,46.25
2022-12-04T02:40:14.282Z,45.60
2022-12-04T02:41:14.275Z,45.44
2022-12-04T02:42:14.283Z,46.25
2022-12-04T02:43:15.263Z,45.92
2022-12-04T02:44:14.257Z,45.92
2022-12-04T02:45:14.263Z,46.41
2022-12-04T02:46:14.309Z,46.08
2022-12-04T02:47:14.234Z,45.92
2022-12-04T02:48:14.226Z,46.41
2022-12-04T02:49:14.235Z,46.41
2022-12-04T02:50:14.295Z,46.57
2022-12-04T02:51:14.206Z,46.25
2022-12-04T02:52:14.194Z,46.73
2022-12-04T02:53:14.201Z,46.57
2022-12-04T02:54:14.181Z,46.41
2022-12-04T02:55:14.184Z,46.25
2022-12-04T02:56:14.180Z,46.25
2022-12-04T02:57:14.177Z,46.08
2022-12-04T02:58:14.190Z,46.41
2022-12-04T02:59:14.164Z,46.25
2022-12-04T03:00:14.163Z,46.25
2022-12-04T03:01:14.239Z,46.41
2022-12-04T03:02:14.145Z,46.41
2022-12-04T03:03:14.140Z,46.41
2022-12-04T03:04:14.118Z,46.25
2022-12-04T03:05:14.127Z,46.41
2022-12-04T03:06:14.108Z,46.08
2022-12-04T03:07:14.103Z,46.08
2022-12-04T03:08:14.144Z,46.25
2022-12-04T03:09:14.083Z,46.08
2022-12-04T03:10:14.081Z,45.92
2022-12-04T03:11:14.076Z,46.41
2022-12-04T03:12:14.063Z,46.41
2022-12-04T03:13:14.046Z,45.92
2022-12-04T03:14:14.039Z,46.25
2022-12-04T03:15:14.050Z,46.25
2022-12-04T03:16:14.205Z,46.25
2022-12-04T03:17:14.071Z,46.08
2022-12-04T03:18:14.046Z,46.57
2022-12-04T03:19:14.023Z,46.25
2022-12-04T03:20:14.035Z,46.57
2022-12-04T03:21:14.029Z,46.41
2022-12-04T03:22:14.027Z,46.08
2022-12-04T03:23:13.997Z,46.08
2022-12-04T03:24:13.987Z,45.76
2022-12-04T03:25:14.012Z,46.25
2022-12-04T03:26:13.970Z,46.08
2022-12-04T03:27:13.971Z,45.76
2022-12-04T03:28:13.964Z,45.76
2022-12-04T03:29:13.954Z,46.08
2022-12-04T03:30:13.941Z,46.57
2022-12-04T03:31:13.992Z,46.25
2022-12-04T03:32:13.959Z,47.05
2022-12-04T03:33:13.982Z,46.25
2022-12-04T03:34:13.922Z,46.08
2022-12-04T03:35:13.916Z,45.92
2022-12-04T03:36:13.927Z,46.08
2022-12-04T03:37:13.910Z,46.08
2022-12-04T03:38:13.898Z,46.41
2022-12-04T03:39:13.889Z,46.08
2022-12-04T03:40:13.881Z,46.25
2022-12-04T03:41:13.874Z,46.08
2022-12-04T03:42:13.879Z,46.25
2022-12-04T03:43:13.856Z,46.41
2022-12-04T03:44:13.858Z,46.41
2022-12-04T03:45:13.838Z,45.92
2022-12-04T03:46:13.906Z,45.76
2022-12-04T03:47:13.849Z,46.08
2022-12-04T03:48:16.803Z,46.25
2022-12-04T03:49:14.831Z,46.25
2022-12-04T03:50:13.822Z,46.57
2022-12-04T03:51:13.806Z,45.92
2022-12-04T03:52:13.812Z,45.60
2022-12-04T03:53:13.807Z,46.08
2022-12-04T03:54:13.791Z,46.25
2022-12-04T03:55:13.787Z,45.92
2022-12-04T03:56:13.791Z,46.25
2022-12-04T03:57:13.778Z,46.08
2022-12-04T03:58:13.783Z,46.41
2022-12-04T03:59:13.771Z,46.41
2022-12-04T04:00:13.754Z,45.92
2022-12-04T04:01:13.783Z,46.08
2022-12-04T04:02:13.793Z,45.92
2022-12-04T04:03:13.731Z,46.25
2022-12-04T04:04:13.735Z,47.86
2022-12-04T04:05:13.715Z,46.57
2022-12-04T04:06:13.707Z,46.25
2022-12-04T04:07:13.704Z,45.60
2022-12-04T04:08:13.765Z,46.08
2022-12-04T04:09:13.765Z,46.25
2022-12-04T04:10:13.674Z,45.92
2022-12-04T04:11:13.678Z,46.25
2022-12-04T04:12:13.667Z,46.41
2022-12-04T04:13:13.667Z,47.05
2022-12-04T04:14:13.662Z,46.73
2022-12-04T04:15:13.682Z,46.89
2022-12-04T04:16:13.689Z,46.25
2022-12-04T04:17:13.627Z,46.25
2022-12-04T04:18:13.625Z,46.25
2022-12-04T04:19:13.624Z,46.41
2022-12-04T04:20:13.614Z,46.41
2022-12-04T04:21:13.606Z,46.41
2022-12-04T04:22:13.601Z,46.57
2022-12-04T04:23:13.590Z,46.25
2022-12-04T04:24:13.600Z,46.08
2022-12-04T04:25:13.574Z,46.25
2022-12-04T04:26:13.575Z,46.89
2022-12-04T04:27:13.562Z,46.25
2022-12-04T04:28:13.561Z,46.41
2022-12-04T04:29:13.559Z,46.57
2022-12-04T04:30:13.539Z,46.73
2022-12-04T04:31:13.674Z,46.25
2022-12-04T04:32:13.526Z,46.89
2022-12-04T04:33:13.518Z,46.41
2022-12-04T04:34:13.510Z,45.92
2022-12-04T04:35:13.520Z,45.60
2022-12-04T04:36:13.494Z,46.57
2022-12-04T04:37:13.495Z,46.25
2022-12-04T04:38:13.484Z,46.25
2022-12-04T04:39:13.483Z,46.89
2022-12-04T04:40:13.490Z,46.41
2022-12-04T04:41:13.467Z,45.92
2022-12-04T04:42:13.463Z,46.41
2022-12-04T04:43:13.474Z,46.08
2022-12-04T04:44:13.446Z,46.25
2022-12-04T04:45:13.456Z,46.57
2022-12-04T04:46:13.494Z,46.41
2022-12-04T04:47:13.438Z,46.25
2022-12-04T04:48:13.428Z,46.41
2022-12-04T04:49:13.418Z,45.92
2022-12-04T04:50:13.414Z,45.76
2022-12-04T04:51:13.410Z,46.25
2022-12-04T04:52:13.415Z,46.41
2022-12-04T04:53:13.391Z,46.41
2022-12-04T04:54:13.390Z,46.25
2022-12-04T04:55:13.378Z,45.92
2022-12-04T04:56:13.378Z,46.41
2022-12-04T04:57:13.377Z,45.92
2022-12-04T04:58:13.362Z,46.08
2022-12-04T04:59:13.346Z,46.41
2022-12-04T05:00:13.354Z,46.41
2022-12-04T05:01:13.385Z,46.57
2022-12-04T05:02:13.415Z,46.57
2022-12-04T05:03:13.371Z,45.60
2022-12-04T05:04:13.310Z,46.08
2022-12-04T05:05:13.309Z,46.25
2022-12-04T05:06:13.299Z,46.08
2022-12-04T05:07:13.294Z,47.21
2022-12-04T05:08:13.324Z,46.08
2022-12-04T05:09:13.274Z,46.25
2022-12-04T05:10:13.274Z,46.08
2022-12-04T05:11:13.261Z,46.08
2022-12-04T05:12:13.278Z,46.08
2022-12-04T05:13:13.263Z,45.76
2022-12-04T05:14:13.235Z,45.92
2022-12-04T05:15:13.245Z,46.25
2022-12-04T05:16:13.280Z,46.25
2022-12-04T05:17:13.232Z,45.60
2022-12-04T05:18:13.238Z,46.08
2022-12-04T05:19:13.219Z,46.89
2022-12-04T05:20:13.214Z,45.92
2022-12-04T05:21:13.199Z,46.25
2022-12-04T05:22:13.185Z,46.41
2022-12-04T05:23:13.200Z,46.25
2022-12-04T05:24:13.182Z,45.76
2022-12-04T05:25:13.170Z,46.41
2022-12-04T05:26:13.166Z,45.60
2022-12-04T05:27:13.158Z,46.25
2022-12-04T05:28:13.146Z,46.41
2022-12-04T05:29:13.147Z,46.41
2022-12-04T05:30:13.147Z,46.73
2022-12-04T05:31:13.186Z,46.41
2022-12-04T05:32:13.125Z,46.25
2022-12-04T05:33:13.115Z,46.41
2022-12-04T05:34:13.097Z,45.76
2022-12-04T05:35:13.098Z,45.92
2022-12-04T05:36:13.080Z,45.76
2022-12-04T05:37:13.079Z,45.92
2022-12-04T05:38:13.095Z,45.92
2022-12-04T05:39:13.063Z,45.76
2022-12-04T05:40:13.062Z,45.76
2022-12-04T05:41:13.054Z,46.41
2022-12-04T05:42:13.049Z,46.08
2022-12-04T05:43:13.070Z,46.25
2022-12-04T05:44:13.045Z,46.25
2022-12-04T05:45:13.048Z,46.25
2022-12-04T05:46:13.066Z,46.25
2022-12-04T05:47:13.017Z,46.25
2022-12-04T05:48:13.034Z,45.92
2022-12-04T05:49:13.026Z,46.08
2022-12-04T05:50:13.003Z,46.41
2022-12-04T05:51:12.991Z,46.73
2022-12-04T05:52:13.002Z,45.92
2022-12-04T05:53:12.990Z,46.89
2022-12-04T05:54:12.975Z,46.57
2022-12-04T05:55:12.956Z,45.60
2022-12-04T05:56:12.958Z,45.76
2022-12-04T05:57:12.946Z,46.08
2022-12-04T05:58:12.950Z,46.08
2022-12-04T05:59:12.951Z,46.41
2022-12-04T06:00:12.960Z,45.44
2022-12-04T06:01:12.941Z,46.89
2022-12-04T06:02:12.983Z,47.53
2022-12-04T06:03:12.971Z,47.53
2022-12-04T06:04:12.914Z,46.73
2022-12-04T06:05:12.894Z,46.25
2022-12-04T06:06:19.263Z,45.76
2022-12-04T06:07:14.885Z,46.25
2022-12-04T06:08:12.948Z,46.08
2022-12-04T06:09:12.912Z,46.08
2022-12-04T06:10:12.854Z,46.57
2022-12-04T06:11:12.861Z,45.60
2022-12-04T06:12:12.853Z,46.08
2022-12-04T06:13:12.843Z,45.60
2022-12-04T06:14:12.848Z,46.41
2022-12-04T06:15:12.836Z,46.08
2022-12-04T06:16:12.850Z,46.41
2022-12-04T06:17:12.809Z,46.08
2022-12-04T06:18:12.827Z,46.25
2022-12-04T06:19:12.794Z,46.41
2022-12-04T06:20:12.820Z,45.76
2022-12-04T06:21:12.778Z,45.44
2022-12-04T06:22:12.770Z,46.41
2022-12-04T06:23:12.786Z,46.25
2022-12-04T06:24:12.779Z,46.41
2022-12-04T06:25:12.738Z,45.92
2022-12-04T06:26:12.756Z,45.76
2022-12-04T06:27:27.221Z,46.25
2022-12-04T06:28:14.769Z,46.08
2022-12-04T06:29:12.732Z,44.96
2022-12-04T06:30:12.726Z,46.08
2022-12-04T06:31:12.714Z,46.57
2022-12-04T06:32:16.512Z,46.73
2022-12-04T06:33:14.800Z,46.41
2022-12-04T06:34:12.707Z,46.25
2022-12-04T06:35:12.690Z,46.73
2022-12-04T06:36:12.686Z,45.76
2022-12-04T06:37:12.671Z,45.92
2022-12-04T06:38:12.667Z,45.76
2022-12-04T06:39:18.342Z,46.41
2022-12-04T06:40:14.658Z,46.41
2022-12-04T06:41:12.647Z,45.92
2022-12-04T06:42:12.635Z,46.73
2022-12-04T06:43:12.639Z,45.92
2022-12-04T06:44:12.631Z,45.60
2022-12-04T06:45:12.638Z,46.25
2022-12-04T06:46:12.698Z,46.25
2022-12-04T06:47:12.607Z,46.25
2022-12-04T06:48:12.594Z,46.57
2022-12-04T06:49:12.589Z,46.57
2022-12-04T06:50:12.581Z,46.57
2022-12-04T06:51:12.581Z,45.92
2022-12-04T06:52:12.567Z,46.57
2022-12-04T06:53:12.559Z,46.57
2022-12-04T06:54:12.566Z,46.25
2022-12-04T06:55:12.551Z,46.89
2022-12-04T06:56:12.538Z,47.53
2022-12-04T06:57:12.542Z,46.25
2022-12-04T06:58:12.520Z,46.08
2022-12-04T06:59:12.516Z,46.57
2022-12-04T07:00:12.527Z,46.57
2022-12-04T07:01:12.564Z,46.57
2022-12-04T07:02:12.594Z,45.92
2022-12-04T07:03:12.507Z,45.60
2022-12-04T07:04:12.507Z,46.08
2022-12-04T07:05:12.483Z,46.57
2022-12-04T07:06:12.498Z,46.08
2022-12-04T07:07:12.492Z,47.05
2022-12-04T07:08:12.528Z,46.73
2022-12-04T07:09:12.465Z,46.57
2022-12-04T07:10:12.461Z,46.89
2022-12-04T07:11:12.474Z,45.92
2022-12-04T07:12:12.457Z,45.92
2022-12-04T07:13:12.442Z,46.41
2022-12-04T07:14:12.444Z,46.89
2022-12-04T07:15:12.429Z,46.25
2022-12-04T07:16:12.469Z,46.57
2022-12-04T07:17:12.458Z,46.41
2022-12-04T07:18:12.401Z,46.73
2022-12-04T07:19:12.406Z,46.41
2022-12-04T07:20:12.400Z,46.41
2022-12-04T07:21:12.394Z,45.92
2022-12-04T07:22:12.370Z,46.25
2022-12-04T07:23:12.365Z,46.57
2022-12-04T07:24:12.389Z,46.73
2022-12-04T07:25:12.353Z,46.57
2022-12-04T07:26:12.341Z,46.73
2022-12-04T07:27:12.341Z,46.41
2022-12-04T07:28:12.333Z,46.89
2022-12-04T07:29:12.323Z,46.08
2022-12-04T07:30:15.652Z,46.08
2022-12-04T07:31:13.354Z,45.76
2022-12-04T07:32:12.384Z,47.37
2022-12-04T07:33:12.291Z,46.41
2022-12-04T07:34:12.291Z,46.41
2022-12-04T07:35:12.277Z,46.41
2022-12-04T07:36:12.305Z,47.86
2022-12-04T07:37:12.277Z,46.25
2022-12-04T07:38:12.261Z,46.57
2022-12-04T07:39:12.257Z,46.57
2022-12-04T07:40:12.249Z,46.73
2022-12-04T07:41:12.252Z,47.53
2022-12-04T07:42:12.245Z,47.86
2022-12-04T07:43:12.222Z,47.21
2022-12-04T07:44:12.214Z,46.73
2022-12-04T07:45:12.206Z,46.73
2022-12-04T07:46:12.275Z,46.41
2022-12-04T07:47:12.210Z,46.41
2022-12-04T07:48:12.189Z,46.25
2022-12-04T07:49:12.199Z,46.41
2022-12-04T07:50:12.166Z,46.25
2022-12-04T07:51:12.166Z,46.08
2022-12-04T07:52:12.181Z,46.25
2022-12-04T07:53:12.195Z,46.89
2022-12-04T07:54:12.150Z,46.89
2022-12-04T07:55:12.140Z,46.73
2022-12-04T07:56:12.133Z,46.89
2022-12-04T07:57:12.131Z,45.92
2022-12-04T07:58:12.151Z,46.73
2022-12-04T07:59:12.111Z,46.57
2022-12-04T08:00:12.110Z,46.08
2022-12-04T08:01:12.160Z,46.89
2022-12-04T08:02:12.099Z,46.73
2022-12-04T08:03:12.118Z,46.41
2022-12-04T08:04:12.144Z,47.86
2022-12-04T08:05:12.070Z,46.73
2022-12-04T08:06:12.050Z,46.57
2022-12-04T08:07:12.050Z,47.53
2022-12-04T08:08:12.067Z,46.57
2022-12-04T08:09:12.073Z,46.89
2022-12-04T08:10:12.036Z,46.89
2022-12-04T08:11:12.030Z,46.89
2022-12-04T08:12:12.024Z,47.86
2022-12-04T08:13:12.026Z,48.50
2022-12-04T08:14:12.055Z,47.37
2022-12-04T08:15:12.004Z,48.02
2022-12-04T08:16:11.986Z,46.73
2022-12-04T08:17:12.116Z,47.86
2022-12-04T08:18:11.975Z,48.02
2022-12-04T08:19:11.981Z,47.21
2022-12-04T08:20:11.961Z,46.89
2022-12-04T08:21:11.959Z,46.89
2022-12-04T08:22:11.973Z,47.37
2022-12-04T08:23:11.945Z,47.37
2022-12-04T08:24:11.937Z,47.37
2022-12-04T08:25:11.926Z,46.73
2022-12-04T08:26:11.925Z,47.21
2022-12-04T08:27:11.950Z,46.41
2022-12-04T08:28:11.922Z,47.21
2022-12-04T08:29:11.902Z,46.73
2022-12-04T08:30:11.891Z,47.53
2022-12-04T08:31:12.027Z,47.37
2022-12-04T08:32:11.919Z,47.53
2022-12-04T08:33:12.007Z,46.89
2022-12-04T08:34:11.873Z,48.50
2022-12-04T08:35:11.873Z,49.79
2022-12-04T08:36:11.862Z,48.66
2022-12-04T08:37:11.850Z,48.18
2022-12-04T08:38:11.868Z,48.82
2022-12-04T08:39:11.834Z,47.05
2022-12-04T08:40:11.834Z,47.70
2022-12-04T08:41:11.828Z,46.89
2022-12-04T08:42:11.834Z,48.02
2022-12-04T08:43:11.801Z,47.37
2022-12-04T08:44:11.813Z,46.73
2022-12-04T08:45:11.822Z,47.53
2022-12-04T08:46:11.867Z,47.37
2022-12-04T08:47:11.775Z,48.02
2022-12-04T08:48:11.775Z,47.86
2022-12-04T08:49:11.771Z,48.82
2022-12-04T08:50:11.771Z,51.88
2022-12-04T08:51:11.762Z,54.95
2022-12-04T08:52:11.745Z,54.95
2022-12-04T08:53:11.741Z,55.11
2022-12-04T08:54:11.732Z,56.07
2022-12-04T08:55:11.733Z,55.91
2022-12-04T08:56:11.741Z,55.11
2022-12-04T08:57:11.721Z,53.82
2022-12-04T08:58:11.701Z,52.85
2022-12-04T08:59:11.693Z,54.79
2022-12-04T09:00:11.694Z,53.66
2022-12-04T09:01:11.919Z,49.15
2022-12-04T09:02:11.697Z,46.73
2022-12-04T09:03:11.671Z,46.41
2022-12-04T09:04:11.744Z,45.92
2022-12-04T09:05:11.658Z,48.34
2022-12-04T09:06:11.653Z,47.70
2022-12-04T09:07:11.673Z,47.86
2022-12-04T09:08:11.717Z,48.50
2022-12-04T09:09:11.657Z,47.53
2022-12-04T09:10:11.632Z,46.73
2022-12-04T09:11:11.618Z,46.73
2022-12-04T09:12:11.607Z,48.02
2022-12-04T09:13:11.634Z,48.18
2022-12-04T09:14:11.601Z,48.98
2022-12-04T09:15:11.588Z,48.18
2022-12-04T09:16:11.694Z,49.79
2022-12-04T09:17:11.573Z,49.95
2022-12-04T09:18:11.584Z,47.70
2022-12-04T09:19:11.564Z,48.50
2022-12-04T09:20:11.561Z,48.98
2022-12-04T09:21:11.538Z,48.82
2022-12-04T09:22:12.541Z,48.02
2022-12-04T09:23:11.536Z,48.82
2022-12-04T09:24:11.545Z,49.15
2022-12-04T09:25:11.517Z,50.27
2022-12-04T09:26:11.516Z,48.02
2022-12-04T09:27:14.966Z,46.89
2022-12-04T09:28:12.517Z,48.50
2022-12-04T09:29:11.516Z,48.02
2022-12-04T09:30:11.485Z,48.18
2022-12-04T09:31:11.579Z,48.66
2022-12-04T09:32:11.477Z,48.02
2022-12-04T09:33:11.466Z,48.98
2022-12-04T09:34:11.468Z,49.47
2022-12-04T09:35:11.472Z,48.66
2022-12-04T09:36:11.457Z,47.70
2022-12-04T09:37:11.441Z,49.15
2022-12-04T09:38:11.441Z,47.21
2022-12-04T09:39:11.436Z,48.18
2022-12-04T09:40:11.444Z,47.86
2022-12-04T09:41:11.424Z,47.37
2022-12-04T09:42:11.416Z,48.34
2022-12-04T09:43:11.410Z,49.31
2022-12-04T09:44:11.398Z,47.53
2022-12-04T09:45:11.417Z,46.57
2022-12-04T09:46:11.414Z,47.05
2022-12-04T09:47:11.441Z,46.08
2022-12-04T09:48:11.377Z,47.37
2022-12-04T09:49:11.361Z,48.82
2022-12-04T09:50:11.361Z,48.34
2022-12-04T09:51:11.368Z,48.50
2022-12-04T09:52:11.343Z,49.31
2022-12-04T09:53:11.337Z,48.34
2022-12-04T09:54:11.324Z,48.66
2022-12-04T09:55:11.319Z,48.34
2022-12-04T09:56:11.325Z,47.86
2022-12-04T09:57:11.304Z,47.05
2022-12-04T09:58:11.296Z,47.70
2022-12-04T09:59:11.295Z,47.37
2022-12-04T10:00:11.298Z,47.37
2022-12-04T10:01:11.287Z,47.86
2022-12-04T10:02:11.352Z,48.02
2022-12-04T10:03:11.389Z,48.66
2022-12-04T10:04:11.308Z,47.37
2022-12-04T10:05:11.245Z,48.02
2022-12-04T10:06:11.253Z,49.47
2022-12-04T10:07:11.276Z,48.18
2022-12-04T10:08:11.299Z,48.98
2022-12-04T10:09:11.232Z,48.66
2022-12-04T10:10:11.204Z,47.53
2022-12-04T10:11:11.216Z,48.34
2022-12-04T10:12:11.221Z,48.66
2022-12-04T10:13:11.201Z,48.66
2022-12-04T10:14:11.193Z,47.86
2022-12-04T10:15:11.197Z,48.18
2022-12-04T10:16:11.225Z,46.89
2022-12-04T10:17:11.173Z,49.63
2022-12-04T10:18:11.176Z,49.63
2022-12-04T10:19:11.153Z,49.47
2022-12-04T10:20:11.156Z,49.15
2022-12-04T10:21:11.148Z,48.66
2022-12-04T10:22:11.136Z,48.02
2022-12-04T10:23:13.945Z,48.50
2022-12-04T10:24:12.116Z,47.70
2022-12-04T10:25:11.123Z,48.98
2022-12-04T10:26:11.110Z,48.34
2022-12-04T10:27:11.106Z,49.15
2022-12-04T10:28:11.121Z,49.15
2022-12-04T10:29:12.090Z,48.66
2022-12-04T10:30:11.093Z,48.18
2022-12-04T10:31:11.202Z,48.98
2022-12-04T10:32:11.067Z,48.02
2022-12-04T10:33:11.071Z,47.86
2022-12-04T10:34:11.071Z,47.86
2022-12-04T10:35:11.052Z,48.98
2022-12-04T10:36:11.040Z,49.31
2022-12-04T10:37:12.043Z,48.98
2022-12-04T10:38:11.033Z,48.18
2022-12-04T10:39:11.041Z,48.98
2022-12-04T10:40:11.054Z,47.37
2022-12-04T10:41:14.898Z,48.50
2022-12-04T10:42:12.007Z,49.79
2022-12-04T10:43:10.997Z,50.43
2022-12-04T10:44:10.995Z,49.31
2022-12-04T10:45:10.999Z,49.31
2022-12-04T10:46:11.042Z,49.47
2022-12-04T10:47:11.028Z,49.31
2022-12-04T10:48:10.970Z,49.15
2022-12-04T10:49:10.959Z,49.15
2022-12-04T10:50:10.952Z,48.82
2022-12-04T10:51:10.943Z,47.86
2022-12-04T10:52:11.945Z,50.27
2022-12-04T10:53:13.836Z,49.95
2022-12-04T10:54:11.929Z,49.31
2022-12-04T10:55:10.926Z,48.82
2022-12-04T10:56:10.914Z,49.63
2022-12-04T10:57:10.908Z,48.66
2022-12-04T10:58:10.886Z,48.98
2022-12-04T10:59:11.895Z,48.66
2022-12-04T11:00:10.899Z,50.76
2022-12-04T11:01:10.888Z,50.43
2022-12-04T11:02:10.899Z,51.56
2022-12-04T11:03:10.928Z,50.60
2022-12-04T11:04:10.867Z,48.66
2022-12-04T11:05:10.859Z,48.98
2022-12-04T11:06:10.872Z,49.47
2022-12-04T11:07:10.848Z,49.63
2022-12-04T11:08:13.382Z,49.63
2022-12-04T11:09:10.823Z,48.98
2022-12-04T11:10:10.831Z,48.82
2022-12-04T11:11:10.846Z,48.82
2022-12-04T11:12:10.803Z,50.60
2022-12-04T11:13:10.804Z,49.95
2022-12-04T11:14:10.802Z,49.47
2022-12-04T11:15:10.890Z,49.95
2022-12-04T11:16:11.906Z,49.15
2022-12-04T11:17:10.777Z,49.31
2022-12-04T11:18:10.768Z,49.31
2022-12-04T11:19:10.769Z,48.18
2022-12-04T11:20:10.767Z,49.63
2022-12-04T11:21:10.742Z,49.47
2022-12-04T11:22:11.778Z,49.15
2022-12-04T11:23:10.734Z,50.11
2022-12-04T11:24:12.749Z,48.66
2022-12-04T11:25:10.725Z,49.79
2022-12-04T11:26:10.726Z,48.98
2022-12-04T11:27:10.722Z,48.66
2022-12-04T11:28:22.504Z,48.50
2022-12-04T11:29:11.701Z,49.79
2022-12-04T11:30:10.689Z,49.63
2022-12-04T11:31:10.750Z,49.47
2022-12-04T11:32:10.729Z,48.98
2022-12-04T11:33:10.679Z,49.79
2022-12-04T11:34:10.661Z,50.11
2022-12-04T11:35:10.652Z,49.31
2022-12-04T11:36:10.641Z,49.63
2022-12-04T11:37:10.731Z,50.11
2022-12-04T11:38:10.640Z,49.79
2022-12-04T11:39:10.641Z,48.66
2022-12-04T11:40:10.632Z,50.11
2022-12-04T11:41:10.613Z,49.47
2022-12-04T11:42:10.605Z,48.18
2022-12-04T11:43:10.613Z,50.11
2022-12-04T11:44:10.614Z,48.66
2022-12-04T11:45:10.598Z,49.15
2022-12-04T11:46:10.651Z,49.63
2022-12-04T11:47:10.659Z,50.27
2022-12-04T11:48:10.573Z,49.79
2022-12-04T11:49:10.561Z,49.79
2022-12-04T11:50:10.594Z,48.82
2022-12-04T11:51:10.549Z,48.82
2022-12-04T11:52:10.545Z,49.47
2022-12-04T11:53:10.544Z,48.98
2022-12-04T11:54:10.537Z,49.63
2022-12-04T11:55:10.541Z,49.31
2022-12-04T11:56:10.545Z,49.95
2022-12-04T11:57:10.517Z,50.27
2022-12-04T11:58:10.504Z,49.63
2022-12-04T11:59:10.496Z,50.76
2022-12-04T12:00:10.477Z,50.43
2022-12-04T12:01:10.503Z,49.79
2022-12-04T12:02:10.676Z,49.31
2022-12-04T12:03:10.768Z,48.34
2022-12-04T12:04:10.460Z,48.82
2022-12-04T12:05:10.444Z,49.31
2022-12-04T12:06:10.463Z,50.11
2022-12-04T12:07:10.459Z,49.63
2022-12-04T12:08:10.441Z,49.31
2022-12-04T12:09:10.434Z,50.76
2022-12-04T12:10:10.617Z,49.15
2022-12-04T12:11:10.433Z,49.95
2022-12-04T12:12:10.413Z,48.66
2022-12-04T12:13:10.399Z,49.15
2022-12-04T12:14:10.390Z,49.15
2022-12-04T12:15:10.386Z,50.11
2022-12-04T12:16:10.431Z,49.79
2022-12-04T12:17:10.391Z,48.50
2022-12-04T12:18:10.370Z,49.63
2022-12-04T12:19:10.365Z,48.66
2022-12-04T12:20:10.353Z,49.63
2022-12-04T12:21:10.429Z,48.98
2022-12-04T12:22:10.350Z,48.82
2022-12-04T12:23:10.324Z,49.95
2022-12-04T12:24:10.334Z,49.79
2022-12-04T12:25:10.331Z,50.76
2022-12-04T12:26:10.321Z,49.31
2022-12-04T12:27:10.306Z,48.66
2022-12-04T12:28:10.294Z,49.47
2022-12-04T12:29:10.363Z,49.31
2022-12-04T12:30:10.283Z,50.76
2022-12-04T12:31:10.277Z,50.43
2022-12-04T12:32:10.405Z,49.79
2022-12-04T12:33:10.265Z,50.27
2022-12-04T12:34:10.265Z,50.60
2022-12-04T12:35:10.257Z,50.43
2022-12-04T12:36:10.254Z,49.79
2022-12-04T12:37:10.278Z,49.31
2022-12-04T12:38:10.234Z,50.43
2022-12-04T12:39:10.229Z,50.43
2022-12-04T12:40:10.225Z,50.43
2022-12-04T12:41:10.212Z,48.50
2022-12-04T12:42:10.219Z,48.98
2022-12-04T12:43:10.252Z,49.79
2022-12-04T12:44:10.204Z,49.15
2022-12-04T12:45:10.191Z,49.63
2022-12-04T12:46:10.240Z,49.63
2022-12-04T12:47:10.189Z,49.63
2022-12-04T12:48:10.182Z,49.47
2022-12-04T12:49:10.173Z,48.82
2022-12-04T12:50:10.160Z,50.27
2022-12-04T12:51:29.256Z,49.79
2022-12-04T12:52:12.169Z,49.15